Terminal Aerodrome Forecast
Issued by NWS

Home | Current Version | Previous Version | Graphics & Text | Print | Product List | Glossary On
Versions: 1 2 3 4 5 6 7 8 9 10 11 12 13 14 15 16 17 18
000
FTUS43 KBIS 231122
TAFJMS
TAF
KJMS 231122Z 2312/2412 14009KT P6SM BKN150
     FM231500 16012G22KT P6SM VCTS SCT030 BKN060CB
     FM231800 19015G25KT P6SM -SHRA VCTS BKN040CB
      TEMPO 2318/2320 4SM -TSRA OVC025CB
     FM232000 28013G21KT P6SM SCT035
     FM240200 28009KT P6SM SKC=

USA.gov is the U.S. government's official web portal to all federal, state and local government web resources and services.